Time;durP1;ratioP1;P1;durP2;ratioP2;P2;SDS_P1;SDS_P2;PMS_P1;PMS_P2;Temp;Humidity;BMP_temperature;BMP_pressure;BME280_temperature;BME280_humidity;BME280_pressure;Samples;Min_cycle;Max_cycle;Signal;HPM_P1;HPM_P2
2022/07/04 00:00:44;;;;;;;4.50;2.50;;;13.60;99.90;;;;;;5051004;28;20052;-87
2022/07/04 00:03:10;;;;;;;4.68;2.10;;;13.40;99.90;;;;;;5058113;28;20514;-87
2022/07/04 00:05:35;;;;;;;4.68;1.98;;;13.40;99.90;;;;;;5046055;28;20761;-87
2022/07/04 00:08:01;;;;;;;4.30;2.33;;;13.80;99.90;;;;;;5059161;28;20048;-87
2022/07/04 00:10:27;;;;;;;5.78;1.85;;;13.30;99.90;;;;;;5062490;28;20056;-88
2022/07/04 00:12:52;;;;;;;4.60;2.05;;;13.30;99.90;;;;;;5057785;28;20098;-88
2022/07/04 00:15:18;;;;;;;6.13;2.50;;;13.20;99.90;;;;;;5061204;28;20086;-86
2022/07/04 00:17:45;;;;;;;4.93;2.63;;;13.20;99.90;;;;;;5055869;28;20460;-88
2022/07/04 00:20:11;;;;;;;5.45;2.95;;;13.20;99.90;;;;;;5047862;28;20053;-88
2022/07/04 00:22:37;;;;;;;5.95;2.67;;;13.20;99.90;;;;;;5061090;28;20051;-87
2022/07/04 00:25:04;;;;;;;5.60;3.05;;;13.20;99.90;;;;;;5058139;28;20478;-87
2022/07/04 00:27:30;;;;;;;5.10;2.60;;;13.20;99.90;;;;;;5054818;28;20039;-87
2022/07/04 00:29:56;;;;;;;5.75;2.55;;;13.20;99.90;;;;;;5056538;28;20063;-87
2022/07/04 00:32:22;;;;;;;6.15;2.33;;;13.10;99.90;;;;;;5044820;28;20769;-87
2022/07/04 00:34:48;;;;;;;6.90;2.53;;;13.20;99.90;;;;;;5061548;28;20051;-87
2022/07/04 00:37:13;;;;;;;8.40;2.88;;;13.10;99.90;;;;;;5058904;28;20045;-88
2022/07/04 00:39:39;;;;;;;6.40;2.70;;;13.10;99.90;;;;;;5050451;28;20059;-87
2022/07/04 00:42:06;;;;;;;5.60;2.90;;;13.10;99.90;;;;;;5062264;28;20044;-87
2022/07/04 00:44:36;;;;;;;5.78;2.83;;;13.30;99.90;;;;;;5060444;28;20053;-88
2022/07/04 00:47:05;;;;;;;5.90;2.50;;;13.10;99.90;;;;;;5054935;28;20056;-87
2022/07/04 00:49:30;;;;;;;7.10;3.42;;;13.10;99.90;;;;;;5062838;28;20126;-87
2022/07/04 00:51:56;;;;;;;5.88;2.70;;;13.00;99.90;;;;;;5062362;28;20044;-88
2022/07/04 00:54:27;;;;;;;5.53;2.55;;;13.00;99.90;;;;;;5056739;28;20049;-88
2022/07/04 00:56:53;;;;;;;6.25;3.10;;;13.60;99.90;;;;;;5048387;28;20040;-87
2022/07/04 00:59:19;;;;;;;5.32;2.80;;;13.00;99.90;;;;;;5062043;28;20126;-87
2022/07/04 01:01:45;;;;;;;8.52;3.03;;;13.20;99.90;;;;;;5057279;28;20040;-87
2022/07/04 01:04:14;;;;;;;9.98;2.88;;;13.00;99.90;;;;;;5055704;28;20568;-87
2022/07/04 01:06:40;;;;;;;5.65;2.67;;;13.40;99.90;;;;;;5056482;28;20044;-88
2022/07/04 01:09:07;;;;;;;5.93;2.85;;;13.00;99.90;;;;;;5064190;28;20051;-88
2022/07/04 01:11:32;;;;;;;5.43;3.05;;;13.30;99.90;;;;;;5053601;28;20052;-88
2022/07/04 01:13:58;;;;;;;5.82;3.00;;;13.10;99.90;;;;;;5060353;28;20044;-87
2022/07/04 01:16:25;;;;;;;6.63;3.53;;;13.00;99.90;;;;;;5065555;28;20048;-87
2022/07/04 01:18:52;;;;;;;5.03;3.22;;;13.00;99.90;;;;;;5058851;28;20071;-87
2022/07/04 01:21:18;;;;;;;4.82;3.28;;;13.00;99.90;;;;;;5067947;28;20063;-87
2022/07/04 01:23:45;;;;;;;5.85;3.05;;;13.20;99.90;;;;;;5066142;28;20416;-88
2022/07/04 01:26:11;;;;;;;6.43;3.08;;;13.00;99.90;;;;;;5061089;28;20044;-88
2022/07/04 01:28:37;;;;;;;6.15;2.92;;;13.00;99.90;;;;;;5060482;28;20044;-87
2022/07/04 01:31:03;;;;;;;5.57;3.10;;;13.00;99.90;;;;;;5065335;28;20048;-87
2022/07/04 01:33:33;;;;;;;5.90;2.85;;;12.90;99.90;;;;;;5060649;28;20182;-88
2022/07/04 01:35:59;;;;;;;5.50;2.83;;;12.90;99.90;;;;;;5058622;28;20044;-86
2022/07/04 01:38:25;;;;;;;4.95;2.58;;;12.90;99.90;;;;;;5064184;28;20052;-87
2022/07/04 01:40:51;;;;;;;5.40;2.58;;;12.80;99.90;;;;;;5065502;28;20048;-88
2022/07/04 01:43:16;;;;;;;6.05;2.80;;;12.80;99.90;;;;;;5055808;28;20882;-88
2022/07/04 01:45:42;;;;;;;6.00;2.97;;;12.80;99.90;;;;;;5051070;28;20212;-87
2022/07/04 01:48:09;;;;;;;5.55;3.10;;;13.40;99.90;;;;;;5063624;28;20051;-87
2022/07/04 01:50:36;;;;;;;6.65;3.75;;;12.70;99.90;;;;;;5063150;28;20047;-86
2022/07/04 01:53:02;;;;;;;5.80;3.50;;;12.70;99.90;;;;;;5057705;28;20475;-88
2022/07/04 01:55:28;;;;;;;5.85;3.10;;;12.70;99.90;;;;;;5046994;28;20124;-86
2022/07/04 01:57:54;;;;;;;6.05;3.63;;;12.70;99.90;;;;;;5053051;28;20084;-87
2022/07/04 02:03:04;;;;;;;8.05;3.90;;;12.60;99.90;;;;;;5060295;28;20052;-86
2022/07/04 02:05:30;;;;;;;5.32;3.42;;;12.60;99.90;;;;;;5063985;28;20452;-89
2022/07/04 02:07:56;;;;;;;5.95;3.60;;;12.90;99.90;;;;;;5052728;28;20044;-87
2022/07/04 02:10:22;;;;;;;5.72;3.60;;;12.60;99.90;;;;;;5062617;28;20784;-86
2022/07/04 02:13:06;;;;;;;6.65;3.10;;;12.60;99.90;;;;;;5061028;28;20033;-87
2022/07/04 02:15:38;;;;;;;5.72;3.05;;;13.40;99.90;;;;;;5066560;28;20056;-88
2022/07/04 02:18:06;;;;;;;7.53;4.07;;;12.50;99.90;;;;;;5064391;28;20072;-87
2022/07/04 02:20:33;;;;;;;6.78;3.47;;;12.50;99.90;;;;;;5058896;28;20610;-88
2022/07/04 02:22:59;;;;;;;7.60;3.20;;;12.50;99.90;;;;;;5052909;28;20064;-87
2022/07/04 02:25:25;;;;;;;6.57;3.80;;;12.40;99.90;;;;;;5050474;28;20156;-87
2022/07/04 02:27:51;;;;;;;8.10;4.22;;;12.40;99.90;;;;;;5062483;28;20127;-87
2022/07/04 02:30:16;;;;;;;7.45;3.53;;;12.40;99.90;;;;;;5063028;28;20493;-87
2022/07/04 02:32:42;;;;;;;5.15;3.38;;;12.40;99.90;;;;;;5062386;28;20032;-87
2022/07/04 02:35:09;;;;;;;5.80;3.40;;;12.40;99.90;;;;;;5051485;28;20882;-87
2022/07/04 02:37:37;;;;;;;6.13;4.13;;;12.40;99.90;;;;;;5062081;28;20104;-88
2022/07/04 02:40:04;;;;;;;6.95;4.10;;;12.40;99.90;;;;;;5060618;28;20052;-88
2022/07/04 02:42:32;;;;;;;7.15;4.53;;;12.40;99.90;;;;;;5053481;28;20096;-88
2022/07/04 02:44:58;;;;;;;9.18;4.95;;;12.70;99.90;;;;;;5059523;28;20057;-87
2022/07/04 02:47:24;;;;;;;6.45;4.20;;;12.60;99.90;;;;;;5056564;28;20086;-87
2022/07/04 02:49:49;;;;;;;7.50;4.13;;;12.40;99.90;;;;;;5060032;28;20064;-88
2022/07/04 02:52:16;;;;;;;6.95;3.85;;;12.40;99.90;;;;;;5060544;28;20761;-88
2022/07/04 02:54:42;;;;;;;6.70;3.67;;;12.40;99.90;;;;;;5059196;28;20060;-87
2022/07/04 02:57:08;;;;;;;11.13;4.40;;;12.30;99.90;;;;;;5057733;28;20445;-88
2022/07/04 02:59:34;;;;;;;5.53;3.60;;;11.90;99.90;;;;;;5063715;28;20048;-87
2022/07/04 03:02:00;;;;;;;9.52;5.55;;;12.30;99.90;;;;;;5046733;28;20645;-87
2022/07/04 03:04:26;;;;;;;7.03;4.50;;;12.20;99.90;;;;;;5045062;28;20044;-88
2022/07/04 03:06:52;;;;;;;10.02;4.85;;;12.20;99.90;;;;;;5050214;28;20044;-87
2022/07/04 03:09:17;;;;;;;6.93;4.25;;;12.40;99.90;;;;;;5060888;28;20052;-88
2022/07/04 03:11:44;;;;;;;7.18;4.63;;;12.20;99.90;;;;;;5053483;28;20045;-87
2022/07/04 03:14:10;;;;;;;7.05;4.88;;;12.20;99.90;;;;;;5049090;28;20059;-88
2022/07/04 03:16:35;;;;;;;8.20;4.35;;;12.20;99.90;;;;;;5046446;28;20045;-88
2022/07/04 03:19:01;;;;;;;8.70;5.07;;;12.20;99.90;;;;;;5060894;28;20514;-88
2022/07/04 03:21:27;;;;;;;9.75;5.07;;;12.20;99.90;;;;;;5052583;28;20110;-88
2022/07/04 03:23:58;;;;;;;8.02;4.93;;;12.10;99.90;;;;;;5061822;28;20045;-88
2022/07/04 03:26:29;;;;;;;8.52;5.28;;;12.90;99.90;;;;;;5064076;28;20044;-87
2022/07/04 03:28:56;;;;;;;8.00;4.53;;;12.10;99.90;;;;;;5061285;28;20402;-88
2022/07/04 03:31:22;;;;;;;8.25;4.88;;;12.20;99.90;;;;;;5046375;28;20066;-88
2022/07/04 03:33:48;;;;;;;9.73;5.65;;;12.10;99.90;;;;;;5053476;28;20036;-87
2022/07/04 03:36:15;;;;;;;9.23;5.30;;;12.10;99.90;;;;;;5058037;28;20067;-88
2022/07/04 03:38:41;;;;;;;6.78;4.78;;;12.10;99.90;;;;;;5055029;28;20087;-88
2022/07/04 03:41:07;;;;;;;7.25;4.50;;;12.00;99.90;;;;;;5059862;28;21114;-88
2022/07/04 03:43:37;;;;;;;8.95;5.90;;;12.00;99.90;;;;;;5062634;28;20804;-88
2022/07/04 03:46:04;;;;;;;8.45;5.82;;;12.00;99.90;;;;;;5060557;28;20613;-88
2022/07/04 03:48:30;;;;;;;8.10;5.65;;;12.00;99.90;;;;;;5058911;28;20048;-87
2022/07/04 03:50:56;;;;;;;8.82;5.93;;;12.20;99.90;;;;;;5057983;28;20536;-87
2022/07/04 03:53:22;;;;;;;9.57;5.65;;;12.00;99.90;;;;;;5064113;28;20137;-87
2022/07/04 03:55:48;;;;;;;10.60;6.38;;;12.30;99.90;;;;;;5061529;28;20064;-88
2022/07/04 03:58:13;;;;;;;7.95;6.05;;;12.10;99.90;;;;;;5054920;28;20155;-88
2022/07/04 04:00:39;;;;;;;12.32;5.75;;;12.10;99.90;;;;;;5060335;28;20060;-88
2022/07/04 04:05:26;;;;;;;9.63;6.70;;;12.00;99.90;;;;;;5060819;28;20044;-88
2022/07/04 04:05:54;;;;;;;10.85;6.85;;;12.10;99.90;;;;;;5060747;28;20094;-88
2022/07/04 04:08:19;;;;;;;9.32;5.85;;;12.10;99.90;;;;;;5057644;28;20082;-88
2022/07/04 04:10:47;;;;;;;10.73;6.65;;;12.10;99.90;;;;;;5051738;28;20049;-88
2022/07/04 04:13:15;;;;;;;11.60;6.65;;;12.10;99.90;;;;;;5062370;28;20086;-88
2022/07/04 04:15:41;;;;;;;9.65;6.72;;;12.90;99.90;;;;;;5062161;28;20067;-88
2022/07/04 04:18:07;;;;;;;8.07;5.57;;;12.20;99.90;;;;;;5060125;28;20095;-87
2022/07/04 04:20:33;;;;;;;10.35;6.70;;;12.10;99.90;;;;;;5056413;28;20052;-89
2022/07/04 04:22:58;;;;;;;12.07;7.20;;;12.10;99.90;;;;;;5053087;28;20036;-88
2022/07/04 04:25:25;;;;;;;12.15;7.22;;;12.10;99.90;;;;;;5061875;28;20126;-88
2022/07/04 04:27:51;;;;;;;9.45;6.85;;;12.10;99.90;;;;;;5050308;28;20772;-88
2022/07/04 04:30:18;;;;;;;9.98;6.57;;;12.20;99.90;;;;;;5054765;28;20040;-88
2022/07/04 04:32:43;;;;;;;11.48;7.70;;;12.20;99.90;;;;;;5057608;28;20072;-88
2022/07/04 04:35:12;;;;;;;12.82;7.10;;;12.30;99.90;;;;;;5060856;28;20049;-88
2022/07/04 04:37:38;;;;;;;9.35;7.22;;;12.30;99.90;;;;;;5062428;28;20043;-88
2022/07/04 04:40:04;;;;;;;10.73;8.00;;;12.40;99.90;;;;;;5059770;28;20049;-88
2022/07/04 04:42:37;;;;;;;10.32;7.30;;;12.40;99.90;;;;;;5055043;28;20049;-88
2022/07/04 04:45:04;;;;;;;11.57;8.38;;;12.40;99.90;;;;;;5055916;28;20041;-89
2022/07/04 04:47:30;;;;;;;10.85;6.65;;;12.50;99.90;;;;;;5063422;28;20069;-88
2022/07/04 04:49:55;;;;;;;12.20;8.43;;;12.40;99.90;;;;;;5050381;28;20041;-89
2022/07/04 04:52:21;;;;;;;12.75;8.82;;;12.50;99.90;;;;;;5059978;28;20055;-88
2022/07/04 04:54:47;;;;;;;12.02;8.63;;;12.60;99.90;;;;;;5062795;28;20052;-87
2022/07/04 04:57:13;;;;;;;12.65;8.82;;;13.20;99.90;;;;;;5058934;28;20083;-87
2022/07/04 04:59:39;;;;;;;11.82;8.10;;;12.70;99.90;;;;;;5056405;28;20059;-88
2022/07/04 05:02:05;;;;;;;13.35;8.73;;;12.80;99.90;;;;;;5048632;28;20041;-87
2022/07/04 05:04:31;;;;;;;13.43;8.30;;;12.70;99.90;;;;;;5055633;28;20048;-88
2022/07/04 05:06:57;;;;;;;13.52;9.13;;;12.80;99.90;;;;;;5059503;28;20064;-88
2022/07/04 05:09:22;;;;;;;12.63;8.45;;;12.90;99.90;;;;;;5051514;28;20041;-88
2022/07/04 05:11:48;;;;;;;11.05;8.00;;;12.90;99.90;;;;;;5048365;28;20033;-89
2022/07/04 05:14:14;;;;;;;11.43;8.15;;;12.90;99.90;;;;;;5057341;28;20645;-88
2022/07/04 05:16:40;;;;;;;14.40;9.13;;;13.00;99.90;;;;;;5054856;28;20048;-84
2022/07/04 05:19:05;;;;;;;13.25;8.43;;;13.00;99.90;;;;;;5055735;28;20040;-80
2022/07/04 05:21:31;;;;;;;11.13;8.73;;;13.00;99.90;;;;;;5052112;28;20115;-80
2022/07/04 05:23:57;;;;;;;13.73;8.98;;;13.10;99.90;;;;;;5060252;28;20110;-80
2022/07/04 05:26:23;;;;;;;14.90;9.30;;;13.20;99.90;;;;;;5040113;28;20087;-81
2022/07/04 05:28:49;;;;;;;13.57;9.18;;;13.20;99.90;;;;;;5055978;28;20583;-80
2022/07/04 05:31:14;;;;;;;12.57;8.50;;;13.20;99.90;;;;;;5058233;28;20094;-80
2022/07/04 05:33:40;;;;;;;10.38;7.90;;;13.30;99.90;;;;;;5061079;28;20048;-80
2022/07/04 05:36:06;;;;;;;14.35;8.65;;;13.30;99.90;;;;;;5055132;28;20114;-80
2022/07/04 05:38:31;;;;;;;13.05;8.52;;;13.40;99.90;;;;;;5058401;28;20087;-80
2022/07/04 05:40:57;;;;;;;13.20;8.85;;;13.70;99.90;;;;;;5058476;28;20127;-81
2022/07/04 05:43:25;;;;;;;13.75;8.48;;;13.50;99.90;;;;;;5058742;28;20067;-83
2022/07/04 05:45:51;;;;;;;14.50;8.15;;;13.70;99.90;;;;;;5056171;28;20429;-81
2022/07/04 05:48:17;;;;;;;13.07;9.15;;;13.60;99.90;;;;;;5057404;28;20510;-80
2022/07/04 05:50:42;;;;;;;16.63;9.27;;;13.70;99.90;;;;;;5055006;28;20076;-79
2022/07/04 05:53:08;;;;;;;17.73;9.10;;;13.70;99.90;;;;;;5056578;28;20040;-81
2022/07/04 05:55:34;;;;;;;15.63;8.65;;;13.80;99.90;;;;;;5053315;28;20048;-81
2022/07/04 05:58:00;;;;;;;12.88;8.85;;;13.90;99.90;;;;;;5044570;28;20080;-80
2022/07/04 06:00:26;;;;;;;15.40;9.00;;;14.10;99.90;;;;;;5057186;28;20660;-80
2022/07/04 06:02:51;;;;;;;14.10;8.95;;;14.00;99.90;;;;;;5052758;28;20052;-80
2022/07/04 06:05:17;;;;;;;13.27;8.45;;;14.10;99.90;;;;;;5056650;28;20049;-79
2022/07/04 06:07:42;;;;;;;14.32;8.07;;;14.20;99.90;;;;;;5044644;28;20079;-81
2022/07/04 06:10:09;;;;;;;13.15;8.52;;;14.50;99.90;;;;;;5052002;28;20052;-81
2022/07/04 06:12:35;;;;;;;14.55;7.40;;;14.40;99.90;;;;;;5048819;28;20048;-81
2022/07/04 06:15:01;;;;;;;11.23;6.88;;;14.40;99.90;;;;;;5055453;28;20041;-83
2022/07/04 06:17:27;;;;;;;11.27;6.55;;;14.50;99.90;;;;;;5060390;28;20051;-81
2022/07/04 06:19:53;;;;;;;12.05;6.28;;;14.70;99.90;;;;;;5059520;28;20059;-81
2022/07/04 06:22:19;;;;;;;13.13;6.38;;;14.60;99.90;;;;;;5057533;28;20696;-82
2022/07/04 06:24:44;;;;;;;13.50;6.38;;;14.70;99.90;;;;;;5049724;28;20134;-82
2022/07/04 06:27:10;;;;;;;10.77;6.90;;;14.80;99.90;;;;;;5044280;28;20040;-82
2022/07/04 06:29:36;;;;;;;13.38;6.28;;;14.80;99.90;;;;;;5057659;28;20446;-82
2022/07/04 06:32:01;;;;;;;11.57;6.53;;;14.90;99.90;;;;;;5048525;28;20105;-80
2022/07/04 06:37:11;;;;;;;10.88;6.13;;;15.00;99.90;;;;;;5055375;28;20684;-84
2022/07/04 06:39:36;;;;;;;11.18;5.65;;;15.20;99.90;;;;;;5048604;28;20049;-85
2022/07/04 06:42:02;;;;;;;9.10;4.97;;;15.30;99.90;;;;;;5045098;28;20627;-85
2022/07/04 06:44:28;;;;;;;12.57;5.88;;;15.50;99.90;;;;;;5039889;28;20061;-85
2022/07/04 06:46:53;;;;;;;10.20;5.10;;;15.60;99.90;;;;;;5038265;28;20048;-86
2022/07/04 06:49:19;;;;;;;15.25;5.50;;;15.70;99.90;;;;;;5047818;28;20053;-86
2022/07/04 06:51:44;;;;;;;13.43;5.78;;;15.70;99.90;;;;;;5038906;28;20052;-85
2022/07/04 06:54:10;;;;;;;11.10;5.03;;;15.80;99.90;;;;;;5038659;28;20052;-85
2022/07/04 06:56:36;;;;;;;9.95;4.93;;;16.00;99.90;;;;;;5041196;28;20120;-85
2022/07/04 06:59:03;;;;;;;10.30;4.22;;;16.00;99.90;;;;;;5039344;28;20052;-85
2022/07/04 07:01:28;;;;;;;9.35;3.85;;;16.20;99.90;;;;;;5040529;28;20171;-85
2022/07/04 07:03:54;;;;;;;12.95;3.97;;;16.00;99.90;;;;;;5040313;28;20258;-85
2022/07/04 07:06:19;;;;;;;9.60;4.32;;;16.20;99.90;;;;;;5040127;28;20397;-86
2022/07/04 07:08:45;;;;;;;9.75;4.13;;;16.30;99.90;;;;;;5040054;28;20153;-85
2022/07/04 07:11:13;;;;;;;11.95;4.47;;;16.60;99.90;;;;;;5039656;28;20084;-86
2022/07/04 07:13:44;;;;;;;9.20;3.97;;;16.60;99.90;;;;;;5039694;28;20103;-85
2022/07/04 07:16:11;;;;;;;9.15;4.55;;;16.80;99.90;;;;;;5038821;28;20132;-85
2022/07/04 07:18:37;;;;;;;11.80;3.78;;;17.00;99.90;;;;;;5038671;28;20060;-85
2022/07/04 07:21:03;;;;;;;8.43;3.95;;;17.10;99.90;;;;;;5039251;28;20055;-85
2022/07/04 07:23:29;;;;;;;7.32;4.05;;;17.20;99.90;;;;;;5038528;28;20171;-85
2022/07/04 07:25:54;;;;;;;8.68;3.50;;;17.20;99.90;;;;;;5039830;28;21036;-85
2022/07/04 07:28:20;;;;;;;12.43;4.03;;;17.80;99.90;;;;;;5039657;28;20034;-85
2022/07/04 07:30:45;;;;;;;13.20;4.07;;;17.80;99.90;;;;;;5040334;28;20131;-85
2022/07/04 07:33:11;;;;;;;12.23;3.75;;;18.20;99.90;;;;;;5039052;28;20045;-85
2022/07/04 07:35:37;;;;;;;9.73;4.10;;;18.00;99.90;;;;;;5053702;28;20052;-85
2022/07/04 07:38:03;;;;;;;13.57;4.70;;;18.20;99.90;;;;;;5057592;28;20515;-85
2022/07/04 07:40:28;;;;;;;14.35;3.53;;;18.60;99.90;;;;;;5050104;28;20053;-85
2022/07/04 07:42:54;;;;;;;10.30;4.07;;;18.70;99.90;;;;;;5036954;28;20063;-86
2022/07/04 07:45:21;;;;;;;7.60;3.97;;;19.00;99.90;;;;;;5038040;28;20063;-86
2022/07/04 07:47:46;;;;;;;10.57;3.53;;;19.20;99.90;;;;;;5052896;28;20040;-82
2022/07/04 07:50:12;;;;;;;10.40;3.90;;;19.30;99.90;;;;;;5043928;28;20216;-85
2022/07/04 07:52:38;;;;;;;12.27;3.42;;;19.30;99.90;;;;;;5037894;28;20041;-86
2022/07/04 07:55:04;;;;;;;10.07;4.00;;;19.40;99.90;;;;;;5037361;28;20494;-86
2022/07/04 07:57:30;;;;;;;10.80;3.08;;;19.40;99.90;;;;;;5044620;28;20041;-86
2022/07/04 07:59:57;;;;;;;9.05;2.72;;;19.40;99.90;;;;;;5037386;28;20053;-86
2022/07/04 08:05:07;;;;;;;10.25;2.58;;;19.70;99.90;;;;;;5052200;28;20780;-85
2022/07/04 08:07:33;;;;;;;8.93;2.15;;;19.80;99.90;;;;;;5040145;28;20041;-86
2022/07/04 08:09:59;;;;;;;12.45;2.67;;;19.70;99.90;;;;;;5039288;28;20052;-87
2022/07/04 08:12:25;;;;;;;6.07;1.52;;;19.80;99.90;;;;;;5040661;28;20056;-87
2022/07/04 08:14:50;;;;;;;6.20;1.98;;;19.80;99.90;;;;;;5041709;28;20037;-87
2022/07/04 08:17:16;;;;;;;7.65;1.83;;;19.80;99.90;;;;;;5051359;28;20052;-87
2022/07/04 08:19:41;;;;;;;8.90;2.28;;;20.10;99.90;;;;;;5050598;28;20058;-87
2022/07/04 08:22:07;;;;;;;8.93;2.10;;;20.20;99.90;;;;;;5059765;28;20052;-88
2022/07/04 08:24:32;;;;;;;10.93;1.85;;;20.60;99.90;;;;;;5062255;28;20903;-88
2022/07/04 08:26:58;;;;;;;6.90;1.90;;;20.50;99.90;;;;;;5062914;28;20046;-87
2022/07/04 08:29:24;;;;;;;10.18;1.92;;;20.70;99.90;;;;;;5062818;28;20049;-87
2022/07/04 08:31:49;;;;;;;8.15;2.03;;;20.80;99.90;;;;;;5063043;28;20082;-87
2022/07/04 08:34:15;;;;;;;8.43;1.90;;;20.80;99.90;;;;;;5046734;28;20063;-88
2022/07/04 08:36:41;;;;;;;6.15;1.70;;;20.80;99.90;;;;;;5060632;28;20045;-87
2022/07/04 08:39:06;;;;;;;5.55;2.10;;;20.80;99.90;;;;;;5075348;28;20052;-87
2022/07/04 08:41:37;;;;;;;4.68;1.50;;;20.90;99.90;;;;;;5083533;28;20075;-88
2022/07/04 08:44:04;;;;;;;5.70;1.88;;;20.60;99.90;;;;;;5079756;28;20065;-87
2022/07/04 08:46:30;;;;;;;9.75;2.10;;;20.70;99.90;;;;;;5059966;28;20708;-88
2022/07/04 08:49:01;;;;;;;5.43;1.70;;;21.00;99.90;;;;;;5062293;28;20125;-90
2022/07/04 08:51:53;;;;;;;4.38;1.23;;;20.80;99.90;;;;;;5048118;28;20389;-87
2022/07/04 08:59:55;;;;;;;4.38;1.17;;;21.20;99.90;;;;;;5053583;28;20063;-85
2022/07/04 09:02:24;;;;;;;7.90;1.13;;;21.20;99.90;;;;;;5057942;28;20131;-87
2022/07/04 09:04:50;;;;;;;3.83;1.10;;;21.20;99.90;;;;;;5060357;28;20060;-85
2022/07/04 09:07:17;;;;;;;4.25;1.25;;;21.00;99.90;;;;;;5060127;28;20044;-86
2022/07/04 09:09:46;;;;;;;5.05;1.33;;;21.00;99.90;;;;;;5043353;28;20045;-90
2022/07/04 09:12:14;;;;;;;7.80;1.20;;;21.00;99.90;;;;;;5040842;28;20057;-89
2022/07/04 09:14:43;;;;;;;3.78;1.35;;;21.20;99.90;;;;;;5053247;28;20147;-89
2022/07/04 09:17:13;;;;;;;2.80;0.90;;;21.40;99.90;;;;;;5046283;28;20059;-90
2022/07/04 09:19:41;;;;;;;5.60;1.40;;;21.60;99.90;;;;;;5040542;28;20522;-90
2022/07/04 09:22:11;;;;;;;4.57;1.45;;;21.70;99.90;;;;;;5041299;28;20068;-91
2022/07/04 09:24:47;;;;;;;4.57;1.40;;;21.70;99.90;;;;;;5041282;28;20130;-91
2022/07/04 09:27:40;;;;;;;5.82;1.45;;;21.60;99.90;;;;;;5055902;28;20064;-92
2022/07/04 09:31:13;;;;;;;3.30;1.10;;;21.70;99.90;;;;;;5004186;28;20072;-88
2022/07/04 09:33:23;;;;;;;4.03;1.02;;;21.60;99.90;;;;;;5042904;28;20072;-89
2022/07/04 09:39:30;;;;;;;4.90;1.33;;;20.90;99.90;;;;;;5062666;28;20181;-91
2022/07/04 09:42:12;;;;;;;4.00;0.90;;;20.60;99.90;;;;;;5063981;28;20052;-89
2022/07/04 09:45:19;;;;;;;;;;;;;;;;;;;;;
2022/07/04 09:49:05;;;;;;;4.00;1.00;;;20.00;99.90;;;;;;5043910;28;20079;-91
2022/07/04 09:52:39;;;;;;;;;;;;;;;;;;;;;
2022/07/04 09:59:58;;;;;;;2.28;0.90;;;21.30;99.90;;;;;;5014325;28;20084;-89
2022/07/04 10:09:55;;;;;;;7.18;0.70;;;22.10;99.90;;;;;;4923119;29;20051;-92
2022/07/04 10:19:42;;;;;;;;;;;;;;;;;;;;;
2022/07/04 10:27:00;;;;;;;2.40;0.80;;;22.00;99.90;;;;;;4883725;29;20047;-87
2022/07/04 10:29:26;;;;;;;3.05;0.82;;;22.00;99.90;;;;;;5001520;23;20153;-87
2022/07/04 10:35:06;;;;;;;2.67;0.80;;;21.90;99.90;;;;;;5074630;22;20064;-84
2022/07/04 10:38:11;;;;;;;4.18;1.00;;;22.10;99.90;;;;;;5057921;28;20067;-89
2022/07/04 10:40:51;;;;;;;2.95;0.80;;;22.20;99.70;;;;;;5043433;28;20084;-87
2022/07/04 10:44:18;;;;;;;3.45;0.75;;;22.20;99.90;;;;;;5059566;28;20087;-88
2022/07/04 10:46:49;;;;;;;3.88;1.00;;;22.30;99.00;;;;;;5002597;28;20079;-87
2022/07/04 10:49:48;;;;;;;2.78;1.20;;;22.40;99.90;;;;;;5081914;28;20046;-88
2022/07/04 10:52:51;;;;;;;3.03;0.90;;;22.40;98.70;;;;;;5063493;28;20715;-89
2022/07/04 10:55:51;;;;;;;4.80;0.90;;;22.50;99.60;;;;;;5041401;28;20878;-88
2022/07/04 10:58:46;;;;;;;4.70;1.42;;;22.70;98.40;;;;;;5078978;28;20051;-87
2022/07/04 11:01:21;;;;;;;2.25;1.02;;;22.90;99.90;;;;;;5080642;28;20640;-88
2022/07/04 11:03:49;;;;;;;4.15;1.23;;;22.70;99.90;;;;;;5049237;28;20177;-87
2022/07/04 11:06:54;;;;;;;3.97;1.40;;;22.60;99.40;;;;;;5048331;28;20055;-88
2022/07/04 11:09:53;;;;;;;3.20;1.03;;;22.70;99.90;;;;;;5058117;28;20778;-89
2022/07/04 11:12:18;;;;;;;3.53;1.00;;;22.90;99.10;;;;;;5060557;28;20055;-89
2022/07/04 11:14:49;;;;;;;7.38;1.15;;;23.20;99.50;;;;;;5061272;28;20052;-89
2022/07/04 11:17:38;;;;;;;1.67;0.70;;;23.40;99.00;;;;;;5061893;28;20108;-88
2022/07/04 11:20:10;;;;;;;3.08;1.05;;;23.40;98.40;;;;;;5065494;28;20103;-88
2022/07/04 11:22:39;;;;;;;5.05;1.10;;;23.20;99.70;;;;;;5058137;28;20083;-88
2022/07/04 11:25:05;;;;;;;3.97;1.30;;;23.30;99.20;;;;;;5073311;28;20130;-87
2022/07/04 11:27:32;;;;;;;3.40;1.00;;;22.80;99.90;;;;;;5059077;28;20056;-89
2022/07/04 11:30:00;;;;;;;2.35;0.90;;;22.60;99.90;;;;;;5054871;28;20045;-88
2022/07/04 11:32:31;;;;;;;2.08;0.82;;;22.50;99.90;;;;;;5082153;28;20063;-88
2022/07/04 11:38:33;;;;;;;;;;;;;;;;;;;;;
2022/07/04 11:47:53;;;;;;;3.53;0.85;;;23.00;99.20;;;;;;5073859;28;20066;-87
2022/07/04 11:50:18;;;;;;;3.33;0.90;;;22.80;97.60;;;;;;5077733;28;20086;-81
2022/07/04 11:52:47;;;;;;;2.05;0.80;;;22.80;98.50;;;;;;5061598;28;20045;-85
2022/07/04 11:55:16;;;;;;;4.43;1.05;;;22.70;98.30;;;;;;5055101;28;20063;-83
2022/07/04 11:57:51;;;;;;;3.72;0.68;;;22.80;99.80;;;;;;5058195;28;20083;-85
2022/07/04 12:00:20;;;;;;;2.75;1.10;;;23.00;98.30;;;;;;5056922;28;20100;-84
2022/07/04 12:02:47;;;;;;;4.18;0.90;;;23.00;97.90;;;;;;5059279;28;20052;-83
2022/07/04 12:05:14;;;;;;;6.28;0.90;;;22.80;97.90;;;;;;5056144;28;20059;-83
2022/07/04 12:07:42;;;;;;;3.80;0.80;;;22.70;97.80;;;;;;5058298;28;20045;-82
2022/07/04 12:10:22;;;;;;;3.97;0.75;;;22.70;98.70;;;;;;5058337;28;20084;-84
2022/07/04 12:12:58;;;;;;;4.43;1.25;;;22.80;96.40;;;;;;5058512;28;20038;-83
2022/07/04 12:15:35;;;;;;;3.42;0.70;;;22.80;98.10;;;;;;5047057;28;20054;-85
2022/07/04 12:18:01;;;;;;;4.13;0.90;;;22.90;97.30;;;;;;5038186;28;20464;-84
2022/07/04 12:20:27;;;;;;;4.47;0.93;;;22.80;97.20;;;;;;5042177;28;20159;-83
2022/07/04 12:22:55;;;;;;;3.80;0.73;;;22.80;97.10;;;;;;5056880;28;20052;-84
2022/07/04 12:25:24;;;;;;;3.25;0.85;;;23.00;96.50;;;;;;5091016;28;20824;-86
2022/07/04 12:27:59;;;;;;;3.53;0.90;;;23.00;96.60;;;;;;5093447;28;20718;-86
2022/07/04 12:30:30;;;;;;;3.15;0.80;;;22.90;96.30;;;;;;5064976;28;20103;-85
2022/07/04 12:33:00;;;;;;;8.40;0.70;;;23.00;96.50;;;;;;5082792;28;20052;-84
2022/07/04 12:35:42;;;;;;;4.90;0.80;;;23.10;94.60;;;;;;5076376;28;20060;-84
2022/07/04 12:38:17;;;;;;;3.70;0.80;;;23.10;94.30;;;;;;5042688;28;20048;-85
2022/07/04 12:40:53;;;;;;;4.65;0.77;;;23.10;94.00;;;;;;5042929;28;20080;-81
2022/07/04 12:43:19;;;;;;;2.72;0.70;;;23.00;94.90;;;;;;5054400;28;20146;-85
2022/07/04 12:45:50;;;;;;;2.17;0.60;;;23.00;95.10;;;;;;5079782;27;20134;-86
2022/07/04 12:48:24;;;;;;;2.75;0.60;;;23.10;95.20;;;;;;5050173;28;20090;-86
2022/07/04 12:50:49;;;;;;;2.90;0.73;;;23.20;94.60;;;;;;5044887;28;20049;-86
2022/07/04 12:53:16;;;;;;;2.15;0.70;;;23.30;95.00;;;;;;5061499;28;20048;-86
2022/07/04 12:55:43;;;;;;;2.90;0.55;;;23.40;94.30;;;;;;5073246;28;20055;-86
2022/07/04 12:58:09;;;;;;;1.35;0.57;;;23.60;93.70;;;;;;5082100;28;20162;-85
2022/07/04 13:00:35;;;;;;;2.42;0.70;;;23.70;94.10;;;;;;5080813;28;20054;-86
2022/07/04 13:03:00;;;;;;;5.82;0.60;;;23.90;94.70;;;;;;5062366;28;20044;-86
2022/07/04 13:05:27;;;;;;;2.42;0.63;;;24.10;94.80;;;;;;5094063;28;20560;-90
2022/07/04 13:07:52;;;;;;;7.35;1.08;;;24.20;92.60;;;;;;5088304;27;20632;-86
2022/07/04 13:10:18;;;;;;;2.88;0.70;;;24.30;93.40;;;;;;5061436;28;20048;-85
2022/07/04 13:12:44;;;;;;;1.83;0.70;;;24.30;93.10;;;;;;5061956;28;20546;-86
2022/07/04 13:15:11;;;;;;;5.38;0.93;;;24.30;93.20;;;;;;5052543;28;20053;-87
2022/07/04 13:17:37;;;;;;;2.63;0.60;;;24.20;93.30;;;;;;5041502;28;20087;-82
2022/07/04 13:20:04;;;;;;;2.72;0.70;;;24.00;93.60;;;;;;5042593;28;20392;-86
2022/07/04 13:22:30;;;;;;;6.70;0.95;;;23.80;93.40;;;;;;5070203;28;20047;-89
2022/07/04 13:24:56;;;;;;;4.70;0.80;;;23.50;93.40;;;;;;5069419;28;20161;-87
2022/07/04 13:27:22;;;;;;;3.25;1.23;;;23.40;94.20;;;;;;5082290;28;20487;-89
2022/07/04 13:29:47;;;;;;;3.97;0.68;;;23.40;94.90;;;;;;5080188;28;20767;-86
2022/07/04 13:32:13;;;;;;;4.07;0.88;;;23.40;94.40;;;;;;5081283;28;20040;-87
2022/07/04 13:34:39;;;;;;;3.33;0.80;;;23.50;93.90;;;;;;5056336;28;20538;-87
2022/07/04 13:37:05;;;;;;;1.55;0.57;;;23.50;94.50;;;;;;5070716;28;20083;-86
2022/07/04 13:39:31;;;;;;;3.30;0.73;;;23.50;93.10;;;;;;5060169;28;20060;-83
2022/07/04 13:41:57;;;;;;;2.55;0.63;;;23.70;93.40;;;;;;5070840;28;20040;-87
2022/07/04 13:44:22;;;;;;;2.58;0.70;;;23.60;92.20;;;;;;5079231;28;20048;-87
2022/07/04 13:46:48;;;;;;;3.60;0.80;;;23.70;93.50;;;;;;5069339;28;20047;-85
2022/07/04 13:49:13;;;;;;;4.88;0.65;;;23.70;92.90;;;;;;5071659;28;20901;-86
2022/07/04 13:51:41;;;;;;;2.15;0.65;;;23.50;92.80;;;;;;5073224;28;20032;-89